sensor_id;sensor_type;location;lat;lon;timestamp;P1;durP1;ratioP1;P2;durP2;ratioP2
54263;SDS011;40178;53.042;6.406;2023-06-10T00:01:24;8.43;;;4.07;;
54263;SDS011;40178;53.042;6.406;2023-06-10T00:03:50;8.38;;;3.67;;
54263;SDS011;40178;53.042;6.406;2023-06-10T00:06:17;10.75;;;4.15;;
54263;SDS011;40178;53.042;6.406;2023-06-10T00:08:42;9.40;;;4.70;;
54263;SDS011;40178;53.042;6.406;2023-06-10T00:11:08;8.85;;;4.28;;
54263;SDS011;40178;53.042;6.406;2023-06-10T00:13:35;5.88;;;3.38;;
54263;SDS011;40178;53.042;6.406;2023-06-10T00:16:02;7.53;;;3.30;;
54263;SDS011;40178;53.042;6.406;2023-06-10T00:18:28;9.95;;;3.85;;
54263;SDS011;40178;53.042;6.406;2023-06-10T00:20:56;8.15;;;4.15;;
54263;SDS011;40178;53.042;6.406;2023-06-10T00:23:28;8.15;;;4.05;;
54263;SDS011;40178;53.042;6.406;2023-06-10T00:25:56;8.02;;;3.80;;
54263;SDS011;40178;53.042;6.406;2023-06-10T00:28:23;7.68;;;3.92;;
54263;SDS011;40178;53.042;6.406;2023-06-10T00:30:48;7.03;;;3.60;;
54263;SDS011;40178;53.042;6.406;2023-06-10T00:33:14;8.20;;;3.42;;
54263;SDS011;40178;53.042;6.406;2023-06-10T00:35:40;8.45;;;3.88;;
54263;SDS011;40178;53.042;6.406;2023-06-10T00:38:05;7.57;;;3.97;;
54263;SDS011;40178;53.042;6.406;2023-06-10T00:40:33;7.97;;;3.75;;
54263;SDS011;40178;53.042;6.406;2023-06-10T00:43:03;8.60;;;3.90;;
54263;SDS011;40178;53.042;6.406;2023-06-10T00:45:29;7.50;;;3.70;;
54263;SDS011;40178;53.042;6.406;2023-06-10T00:47:55;8.35;;;3.97;;
54263;SDS011;40178;53.042;6.406;2023-06-10T00:50:24;8.52;;;4.47;;
54263;SDS011;40178;53.042;6.406;2023-06-10T00:52:49;9.40;;;3.85;;
54263;SDS011;40178;53.042;6.406;2023-06-10T00:55:16;8.30;;;3.88;;
54263;SDS011;40178;53.042;6.406;2023-06-10T00:57:43;9.80;;;3.50;;
54263;SDS011;40178;53.042;6.406;2023-06-10T01:00:11;8.15;;;4.07;;
54263;SDS011;40178;53.042;6.406;2023-06-10T01:02:37;7.75;;;3.67;;
54263;SDS011;40178;53.042;6.406;2023-06-10T01:05:03;11.35;;;4.15;;
54263;SDS011;40178;53.042;6.406;2023-06-10T01:13:23;9.63;;;4.10;;
54263;SDS011;40178;53.042;6.406;2023-06-10T01:15:53;11.85;;;4.03;;
54263;SDS011;40178;53.042;6.406;2023-06-10T01:18:20;8.27;;;3.72;;
54263;SDS011;40178;53.042;6.406;2023-06-10T01:20:46;9.55;;;4.43;;
54263;SDS011;40178;53.042;6.406;2023-06-10T01:23:14;8.52;;;4.15;;
54263;SDS011;40178;53.042;6.406;2023-06-10T01:25:41;16.05;;;6.95;;
54263;SDS011;40178;53.042;6.406;2023-06-10T01:31:17;8.15;;;4.00;;
54263;SDS011;40178;53.042;6.406;2023-06-10T01:33:59;9.20;;;4.32;;
54263;SDS011;40178;53.042;6.406;2023-06-10T01:36:26;7.80;;;4.10;;
54263;SDS011;40178;53.042;6.406;2023-06-10T01:38:52;9.57;;;4.75;;
54263;SDS011;40178;53.042;6.406;2023-06-10T01:41:19;8.18;;;3.58;;
54263;SDS011;40178;53.042;6.406;2023-06-10T01:43:46;8.32;;;3.92;;
54263;SDS011;40178;53.042;6.406;2023-06-10T01:46:13;8.40;;;4.25;;
54263;SDS011;40178;53.042;6.406;2023-06-10T01:48:41;8.73;;;4.00;;
54263;SDS011;40178;53.042;6.406;2023-06-10T01:51:14;9.00;;;4.22;;
54263;SDS011;40178;53.042;6.406;2023-06-10T01:53:40;7.22;;;3.78;;
54263;SDS011;40178;53.042;6.406;2023-06-10T01:56:12;10.82;;;3.65;;
54263;SDS011;40178;53.042;6.406;2023-06-10T01:58:50;9.82;;;4.00;;
54263;SDS011;40178;53.042;6.406;2023-06-10T02:01:22;8.50;;;4.32;;
54263;SDS011;40178;53.042;6.406;2023-06-10T02:03:51;11.80;;;4.20;;
54263;SDS011;40178;53.042;6.406;2023-06-10T02:06:17;8.20;;;4.32;;
54263;SDS011;40178;53.042;6.406;2023-06-10T02:08:43;8.43;;;3.92;;
54263;SDS011;40178;53.042;6.406;2023-06-10T02:11:08;10.35;;;4.32;;
54263;SDS011;40178;53.042;6.406;2023-06-10T02:13:34;7.05;;;4.05;;
54263;SDS011;40178;53.042;6.406;2023-06-10T02:16:00;8.25;;;4.15;;
54263;SDS011;40178;53.042;6.406;2023-06-10T02:18:26;9.07;;;4.57;;
54263;SDS011;40178;53.042;6.406;2023-06-10T02:20:53;6.97;;;3.58;;
54263;SDS011;40178;53.042;6.406;2023-06-10T02:23:21;14.10;;;4.60;;
54263;SDS011;40178;53.042;6.406;2023-06-10T02:25:47;8.32;;;4.30;;
54263;SDS011;40178;53.042;6.406;2023-06-10T02:28:13;8.63;;;4.35;;
54263;SDS011;40178;53.042;6.406;2023-06-10T02:30:39;12.40;;;4.90;;
54263;SDS011;40178;53.042;6.406;2023-06-10T02:33:08;7.45;;;3.90;;
54263;SDS011;40178;53.042;6.406;2023-06-10T02:35:39;8.40;;;3.95;;
54263;SDS011;40178;53.042;6.406;2023-06-10T02:38:04;10.32;;;4.68;;
54263;SDS011;40178;53.042;6.406;2023-06-10T02:40:30;10.55;;;3.95;;
54263;SDS011;40178;53.042;6.406;2023-06-10T02:42:58;8.15;;;4.22;;
54263;SDS011;40178;53.042;6.406;2023-06-10T02:45:24;9.35;;;4.57;;
54263;SDS011;40178;53.042;6.406;2023-06-10T02:47:50;9.52;;;4.55;;
54263;SDS011;40178;53.042;6.406;2023-06-10T02:50:16;8.63;;;4.15;;
54263;SDS011;40178;53.042;6.406;2023-06-10T02:52:41;7.85;;;3.90;;
54263;SDS011;40178;53.042;6.406;2023-06-10T02:55:07;9.05;;;3.75;;
54263;SDS011;40178;53.042;6.406;2023-06-10T02:57:33;11.50;;;3.75;;
54263;SDS011;40178;53.042;6.406;2023-06-10T03:00:05;8.10;;;3.97;;
54263;SDS011;40178;53.042;6.406;2023-06-10T03:02:35;8.80;;;4.10;;
54263;SDS011;40178;53.042;6.406;2023-06-10T03:05:02;9.35;;;4.15;;
54263;SDS011;40178;53.042;6.406;2023-06-10T03:07:28;7.97;;;4.03;;
54263;SDS011;40178;53.042;6.406;2023-06-10T03:09:53;8.48;;;3.67;;
54263;SDS011;40178;53.042;6.406;2023-06-10T03:12:19;8.80;;;4.88;;
54263;SDS011;40178;53.042;6.406;2023-06-10T03:14:45;8.90;;;3.50;;
54263;SDS011;40178;53.042;6.406;2023-06-10T03:17:13;8.77;;;3.92;;
54263;SDS011;40178;53.042;6.406;2023-06-10T03:19:39;7.15;;;3.75;;
54263;SDS011;40178;53.042;6.406;2023-06-10T03:22:17;10.80;;;4.25;;
54263;SDS011;40178;53.042;6.406;2023-06-10T03:24:43;7.80;;;3.75;;
54263;SDS011;40178;53.042;6.406;2023-06-10T03:27:12;9.20;;;3.95;;
54263;SDS011;40178;53.042;6.406;2023-06-10T03:29:38;8.80;;;4.40;;
54263;SDS011;40178;53.042;6.406;2023-06-10T03:32:04;7.95;;;4.10;;
54263;SDS011;40178;53.042;6.406;2023-06-10T03:34:30;8.65;;;3.55;;
54263;SDS011;40178;53.042;6.406;2023-06-10T03:36:56;9.63;;;3.70;;
54263;SDS011;40178;53.042;6.406;2023-06-10T03:39:23;8.55;;;4.20;;
54263;SDS011;40178;53.042;6.406;2023-06-10T03:41:49;9.48;;;3.78;;
54263;SDS011;40178;53.042;6.406;2023-06-10T03:44:15;7.68;;;4.13;;
54263;SDS011;40178;53.042;6.406;2023-06-10T03:46:45;7.82;;;3.88;;
54263;SDS011;40178;53.042;6.406;2023-06-10T03:49:12;8.60;;;4.30;;
54263;SDS011;40178;53.042;6.406;2023-06-10T03:51:40;9.02;;;4.25;;
54263;SDS011;40178;53.042;6.406;2023-06-10T03:54:05;7.65;;;3.40;;
54263;SDS011;40178;53.042;6.406;2023-06-10T03:56:31;16.55;;;4.57;;
54263;SDS011;40178;53.042;6.406;2023-06-10T03:58:57;8.43;;;4.47;;
54263;SDS011;40178;53.042;6.406;2023-06-10T04:01:24;10.32;;;4.38;;
54263;SDS011;40178;53.042;6.406;2023-06-10T04:03:49;8.05;;;4.18;;
54263;SDS011;40178;53.042;6.406;2023-06-10T04:06:16;9.10;;;4.38;;
54263;SDS011;40178;53.042;6.406;2023-06-10T04:08:47;8.60;;;4.20;;
54263;SDS011;40178;53.042;6.406;2023-06-10T04:11:13;9.65;;;3.65;;
54263;SDS011;40178;53.042;6.406;2023-06-10T04:13:39;11.40;;;4.95;;
54263;SDS011;40178;53.042;6.406;2023-06-10T04:16:05;9.18;;;4.15;;
54263;SDS011;40178;53.042;6.406;2023-06-10T04:18:32;8.23;;;4.32;;
54263;SDS011;40178;53.042;6.406;2023-06-10T04:20:58;8.32;;;3.88;;
54263;SDS011;40178;53.042;6.406;2023-06-10T04:23:24;10.32;;;4.35;;
54263;SDS011;40178;53.042;6.406;2023-06-10T04:25:49;9.70;;;4.47;;
54263;SDS011;40178;53.042;6.406;2023-06-10T04:28:15;10.05;;;4.13;;
54263;SDS011;40178;53.042;6.406;2023-06-10T04:30:41;8.25;;;4.00;;
54263;SDS011;40178;53.042;6.406;2023-06-10T04:33:06;10.20;;;4.13;;
54263;SDS011;40178;53.042;6.406;2023-06-10T04:35:34;7.82;;;3.70;;
54263;SDS011;40178;53.042;6.406;2023-06-10T04:37:59;11.23;;;4.80;;
54263;SDS011;40178;53.042;6.406;2023-06-10T04:40:27;9.30;;;4.60;;
54263;SDS011;40178;53.042;6.406;2023-06-10T04:42:53;15.68;;;5.38;;
54263;SDS011;40178;53.042;6.406;2023-06-10T04:45:19;9.23;;;4.68;;
54263;SDS011;40178;53.042;6.406;2023-06-10T04:47:44;10.60;;;4.53;;
54263;SDS011;40178;53.042;6.406;2023-06-10T04:50:10;9.05;;;4.28;;
54263;SDS011;40178;53.042;6.406;2023-06-10T04:52:36;8.90;;;4.72;;
54263;SDS011;40178;53.042;6.406;2023-06-10T04:55:01;9.77;;;5.07;;
54263;SDS011;40178;53.042;6.406;2023-06-10T04:57:27;11.00;;;4.38;;
54263;SDS011;40178;53.042;6.406;2023-06-10T04:59:53;8.82;;;4.68;;
54263;SDS011;40178;53.042;6.406;2023-06-10T05:02:19;11.43;;;4.55;;
54263;SDS011;40178;53.042;6.406;2023-06-10T05:04:44;13.73;;;4.88;;
54263;SDS011;40178;53.042;6.406;2023-06-10T05:07:10;9.90;;;4.85;;
54263;SDS011;40178;53.042;6.406;2023-06-10T05:09:36;10.10;;;4.45;;
54263;SDS011;40178;53.042;6.406;2023-06-10T05:12:02;11.90;;;4.90;;
54263;SDS011;40178;53.042;6.406;2023-06-10T05:14:28;8.90;;;4.22;;
54263;SDS011;40178;53.042;6.406;2023-06-10T05:16:54;7.80;;;4.28;;
54263;SDS011;40178;53.042;6.406;2023-06-10T05:19:20;8.15;;;4.47;;
54263;SDS011;40178;53.042;6.406;2023-06-10T05:21:46;10.32;;;4.88;;
54263;SDS011;40178;53.042;6.406;2023-06-10T05:24:11;8.68;;;4.50;;
54263;SDS011;40178;53.042;6.406;2023-06-10T05:26:37;10.80;;;4.90;;
54263;SDS011;40178;53.042;6.406;2023-06-10T05:29:03;7.65;;;4.50;;
54263;SDS011;40178;53.042;6.406;2023-06-10T05:31:32;10.50;;;5.05;;
54263;SDS011;40178;53.042;6.406;2023-06-10T05:33:58;11.43;;;6.20;;
54263;SDS011;40178;53.042;6.406;2023-06-10T05:36:23;9.20;;;4.53;;
54263;SDS011;40178;53.042;6.406;2023-06-10T05:38:53;12.70;;;5.00;;
54263;SDS011;40178;53.042;6.406;2023-06-10T05:41:19;8.43;;;4.50;;
54263;SDS011;40178;53.042;6.406;2023-06-10T05:43:45;10.13;;;5.30;;
54263;SDS011;40178;53.042;6.406;2023-06-10T05:46:11;11.15;;;4.53;;
54263;SDS011;40178;53.042;6.406;2023-06-10T05:48:37;9.68;;;4.60;;
54263;SDS011;40178;53.042;6.406;2023-06-10T05:51:02;10.20;;;4.80;;
54263;SDS011;40178;53.042;6.406;2023-06-10T05:53:28;12.85;;;5.63;;
54263;SDS011;40178;53.042;6.406;2023-06-10T05:55:54;12.85;;;5.10;;
54263;SDS011;40178;53.042;6.406;2023-06-10T05:58:22;10.95;;;4.90;;
54263;SDS011;40178;53.042;6.406;2023-06-10T06:00:48;10.57;;;5.00;;
54263;SDS011;40178;53.042;6.406;2023-06-10T06:03:14;8.23;;;5.18;;
54263;SDS011;40178;53.042;6.406;2023-06-10T06:05:40;10.73;;;4.85;;
54263;SDS011;40178;53.042;6.406;2023-06-10T06:08:09;10.05;;;4.85;;
54263;SDS011;40178;53.042;6.406;2023-06-10T06:10:35;9.40;;;4.72;;
54263;SDS011;40178;53.042;6.406;2023-06-10T06:13:01;10.20;;;4.68;;
54263;SDS011;40178;53.042;6.406;2023-06-10T06:15:27;11.07;;;4.82;;
54263;SDS011;40178;53.042;6.406;2023-06-10T06:17:52;10.45;;;5.05;;
54263;SDS011;40178;53.042;6.406;2023-06-10T06:20:18;11.13;;;4.43;;
54263;SDS011;40178;53.042;6.406;2023-06-10T06:22:45;8.68;;;4.78;;
54263;SDS011;40178;53.042;6.406;2023-06-10T06:25:10;9.88;;;4.35;;
54263;SDS011;40178;53.042;6.406;2023-06-10T06:27:36;11.82;;;5.30;;
54263;SDS011;40178;53.042;6.406;2023-06-10T06:30:02;11.18;;;4.63;;
54263;SDS011;40178;53.042;6.406;2023-06-10T06:32:28;10.13;;;4.82;;
54263;SDS011;40178;53.042;6.406;2023-06-10T06:34:53;10.05;;;4.97;;
54263;SDS011;40178;53.042;6.406;2023-06-10T06:37:23;9.15;;;4.35;;
54263;SDS011;40178;53.042;6.406;2023-06-10T06:39:52;8.93;;;4.68;;
54263;SDS011;40178;53.042;6.406;2023-06-10T06:42:19;9.05;;;4.72;;
54263;SDS011;40178;53.042;6.406;2023-06-10T06:44:46;10.90;;;4.85;;
54263;SDS011;40178;53.042;6.406;2023-06-10T06:47:12;9.00;;;4.65;;
54263;SDS011;40178;53.042;6.406;2023-06-10T06:49:38;7.90;;;4.30;;
54263;SDS011;40178;53.042;6.406;2023-06-10T06:52:03;11.57;;;5.32;;
54263;SDS011;40178;53.042;6.406;2023-06-10T06:54:29;11.75;;;5.00;;
54263;SDS011;40178;53.042;6.406;2023-06-10T06:56:55;9.90;;;5.00;;
54263;SDS011;40178;53.042;6.406;2023-06-10T06:59:21;14.90;;;4.93;;
54263;SDS011;40178;53.042;6.406;2023-06-10T07:01:46;8.63;;;4.82;;
54263;SDS011;40178;53.042;6.406;2023-06-10T07:04:14;7.70;;;4.68;;
54263;SDS011;40178;53.042;6.406;2023-06-10T07:06:40;7.90;;;4.65;;
54263;SDS011;40178;53.042;6.406;2023-06-10T07:09:07;10.65;;;5.30;;
54263;SDS011;40178;53.042;6.406;2023-06-10T07:11:34;9.60;;;5.40;;
54263;SDS011;40178;53.042;6.406;2023-06-10T07:13:59;8.45;;;4.82;;
54263;SDS011;40178;53.042;6.406;2023-06-10T07:16:25;8.25;;;4.85;;
54263;SDS011;40178;53.042;6.406;2023-06-10T07:18:52;8.80;;;4.20;;
54263;SDS011;40178;53.042;6.406;2023-06-10T07:21:18;10.45;;;4.65;;
54263;SDS011;40178;53.042;6.406;2023-06-10T07:23:43;8.85;;;4.57;;
54263;SDS011;40178;53.042;6.406;2023-06-10T07:26:10;7.68;;;4.32;;
54263;SDS011;40178;53.042;6.406;2023-06-10T07:28:39;8.55;;;4.85;;
54263;SDS011;40178;53.042;6.406;2023-06-10T07:31:06;10.05;;;4.90;;
54263;SDS011;40178;53.042;6.406;2023-06-10T07:33:32;7.07;;;4.38;;
54263;SDS011;40178;53.042;6.406;2023-06-10T07:35:59;9.80;;;4.50;;
54263;SDS011;40178;53.042;6.406;2023-06-10T07:38:25;8.63;;;4.10;;
54263;SDS011;40178;53.042;6.406;2023-06-10T07:40:51;10.82;;;5.05;;
54263;SDS011;40178;53.042;6.406;2023-06-10T07:43:17;7.28;;;4.20;;
54263;SDS011;40178;53.042;6.406;2023-06-10T07:45:43;8.98;;;3.60;;
54263;SDS011;40178;53.042;6.406;2023-06-10T07:48:09;9.23;;;4.75;;
54263;SDS011;40178;53.042;6.406;2023-06-10T07:50:34;13.18;;;4.10;;
54263;SDS011;40178;53.042;6.406;2023-06-10T07:53:00;9.60;;;4.30;;
54263;SDS011;40178;53.042;6.406;2023-06-10T07:55:26;9.15;;;4.07;;
54263;SDS011;40178;53.042;6.406;2023-06-10T07:57:52;10.07;;;4.30;;
54263;SDS011;40178;53.042;6.406;2023-06-10T08:00:19;17.33;;;5.10;;
54263;SDS011;40178;53.042;6.406;2023-06-10T08:02:45;17.30;;;4.40;;
54263;SDS011;40178;53.042;6.406;2023-06-10T08:05:10;10.50;;;4.53;;
54263;SDS011;40178;53.042;6.406;2023-06-10T08:07:36;14.65;;;4.30;;
54263;SDS011;40178;53.042;6.406;2023-06-10T08:10:02;8.60;;;3.67;;
54263;SDS011;40178;53.042;6.406;2023-06-10T08:12:29;19.05;;;4.38;;
54263;SDS011;40178;53.042;6.406;2023-06-10T08:14:55;13.48;;;4.30;;
54263;SDS011;40178;53.042;6.406;2023-06-10T08:17:20;8.05;;;3.95;;
54263;SDS011;40178;53.042;6.406;2023-06-10T08:19:49;7.32;;;3.50;;
54263;SDS011;40178;53.042;6.406;2023-06-10T08:22:15;8.52;;;4.60;;
54263;SDS011;40178;53.042;6.406;2023-06-10T08:24:41;8.13;;;4.15;;
54263;SDS011;40178;53.042;6.406;2023-06-10T08:27:06;9.32;;;3.65;;
54263;SDS011;40178;53.042;6.406;2023-06-10T08:29:32;7.57;;;3.60;;
54263;SDS011;40178;53.042;6.406;2023-06-10T08:31:58;8.10;;;3.90;;
54263;SDS011;40178;53.042;6.406;2023-06-10T08:34:23;8.30;;;4.13;;
54263;SDS011;40178;53.042;6.406;2023-06-10T08:36:49;9.68;;;4.28;;
54263;SDS011;40178;53.042;6.406;2023-06-10T08:39:20;7.95;;;4.38;;
54263;SDS011;40178;53.042;6.406;2023-06-10T08:41:49;7.05;;;3.95;;
54263;SDS011;40178;53.042;6.406;2023-06-10T08:44:28;12.27;;;3.63;;
54263;SDS011;40178;53.042;6.406;2023-06-10T08:47:01;7.97;;;4.07;;
54263;SDS011;40178;53.042;6.406;2023-06-10T08:49:31;5.75;;;3.55;;
54263;SDS011;40178;53.042;6.406;2023-06-10T08:52:02;9.60;;;4.32;;
54263;SDS011;40178;53.042;6.406;2023-06-10T08:54:30;8.10;;;4.20;;
54263;SDS011;40178;53.042;6.406;2023-06-10T08:56:58;10.18;;;4.60;;
54263;SDS011;40178;53.042;6.406;2023-06-10T08:59:27;10.18;;;4.38;;
54263;SDS011;40178;53.042;6.406;2023-06-10T09:01:52;7.55;;;4.05;;
54263;SDS011;40178;53.042;6.406;2023-06-10T09:04:19;6.07;;;3.83;;
54263;SDS011;40178;53.042;6.406;2023-06-10T09:06:45;7.28;;;4.47;;
54263;SDS011;40178;53.042;6.406;2023-06-10T09:09:14;5.95;;;3.60;;
54263;SDS011;40178;53.042;6.406;2023-06-10T09:11:43;7.78;;;3.80;;
54263;SDS011;40178;53.042;6.406;2023-06-10T09:14:09;8.13;;;4.10;;
54263;SDS011;40178;53.042;6.406;2023-06-10T09:16:34;9.50;;;4.05;;
54263;SDS011;40178;53.042;6.406;2023-06-10T09:19:01;7.07;;;4.53;;
54263;SDS011;40178;53.042;6.406;2023-06-10T09:21:32;7.65;;;3.70;;
54263;SDS011;40178;53.042;6.406;2023-06-10T09:23:59;7.13;;;3.85;;
54263;SDS011;40178;53.042;6.406;2023-06-10T09:26:29;24.63;;;6.03;;
54263;SDS011;40178;53.042;6.406;2023-06-10T09:29:02;6.00;;;3.13;;
54263;SDS011;40178;53.042;6.406;2023-06-10T09:31:37;11.60;;;3.45;;
54263;SDS011;40178;53.042;6.406;2023-06-10T09:34:13;11.18;;;3.38;;
54263;SDS011;40178;53.042;6.406;2023-06-10T09:36:40;6.65;;;3.25;;
54263;SDS011;40178;53.042;6.406;2023-06-10T09:39:18;9.10;;;4.07;;
54263;SDS011;40178;53.042;6.406;2023-06-10T09:41:45;7.60;;;3.42;;
54263;SDS011;40178;53.042;6.406;2023-06-10T09:44:11;7.88;;;3.20;;
54263;SDS011;40178;53.042;6.406;2023-06-10T09:46:39;9.10;;;3.53;;
54263;SDS011;40178;53.042;6.406;2023-06-10T09:49:05;6.38;;;3.20;;
54263;SDS011;40178;53.042;6.406;2023-06-10T09:51:31;6.45;;;2.60;;
54263;SDS011;40178;53.042;6.406;2023-06-10T09:53:57;6.97;;;3.22;;
54263;SDS011;40178;53.042;6.406;2023-06-10T09:56:38;59.15;;;10.25;;
54263;SDS011;40178;53.042;6.406;2023-06-10T09:59:07;7.30;;;3.17;;
54263;SDS011;40178;53.042;6.406;2023-06-10T10:01:33;14.18;;;4.10;;
54263;SDS011;40178;53.042;6.406;2023-06-10T10:03:59;6.40;;;3.10;;
54263;SDS011;40178;53.042;6.406;2023-06-10T10:06:26;6.70;;;3.13;;
54263;SDS011;40178;53.042;6.406;2023-06-10T10:08:52;6.97;;;3.20;;
54263;SDS011;40178;53.042;6.406;2023-06-10T10:11:18;5.65;;;3.20;;
54263;SDS011;40178;53.042;6.406;2023-06-10T10:13:47;8.23;;;3.35;;
54263;SDS011;40178;53.042;6.406;2023-06-10T10:16:15;10.52;;;3.45;;
54263;SDS011;40178;53.042;6.406;2023-06-10T10:18:46;7.68;;;3.05;;
54263;SDS011;40178;53.042;6.406;2023-06-10T10:21:25;5.93;;;2.67;;
54263;SDS011;40178;53.042;6.406;2023-06-10T10:24:03;6.20;;;2.92;;
54263;SDS011;40178;53.042;6.406;2023-06-10T10:26:33;5.20;;;2.58;;
54263;SDS011;40178;53.042;6.406;2023-06-10T10:29:10;5.85;;;2.55;;
54263;SDS011;40178;53.042;6.406;2023-06-10T10:31:43;7.70;;;2.60;;
54263;SDS011;40178;53.042;6.406;2023-06-10T10:34:12;8.65;;;3.05;;
54263;SDS011;40178;53.042;6.406;2023-06-10T10:36:41;5.90;;;2.75;;
54263;SDS011;40178;53.042;6.406;2023-06-10T10:39:08;6.18;;;2.97;;
54263;SDS011;40178;53.042;6.406;2023-06-10T10:41:34;6.72;;;2.65;;
54263;SDS011;40178;53.042;6.406;2023-06-10T10:44:03;6.45;;;2.97;;
54263;SDS011;40178;53.042;6.406;2023-06-10T10:46:41;6.93;;;2.92;;
54263;SDS011;40178;53.042;6.406;2023-06-10T10:49:13;7.68;;;2.70;;
54263;SDS011;40178;53.042;6.406;2023-06-10T10:51:59;8.02;;;2.80;;
54263;SDS011;40178;53.042;6.406;2023-06-10T10:54:29;5.80;;;2.47;;
54263;SDS011;40178;53.042;6.406;2023-06-10T10:57:19;6.57;;;3.10;;
54263;SDS011;40178;53.042;6.406;2023-06-10T11:02:32;4.65;;;2.45;;
54263;SDS011;40178;53.042;6.406;2023-06-10T11:05:01;5.35;;;2.47;;
54263;SDS011;40178;53.042;6.406;2023-06-10T11:07:27;5.35;;;2.13;;
54263;SDS011;40178;53.042;6.406;2023-06-10T11:15:32;6.13;;;2.50;;
54263;SDS011;40178;53.042;6.406;2023-06-10T11:21:04;8.05;;;2.40;;
54263;SDS011;40178;53.042;6.406;2023-06-10T11:23:40;6.43;;;2.80;;
54263;SDS011;40178;53.042;6.406;2023-06-10T11:29:03;5.05;;;1.90;;
54263;SDS011;40178;53.042;6.406;2023-06-10T11:34:09;4.78;;;2.22;;
54263;SDS011;40178;53.042;6.406;2023-06-10T11:36:38;4.72;;;2.08;;
54263;SDS011;40178;53.042;6.406;2023-06-10T11:39:07;4.75;;;2.22;;
54263;SDS011;40178;53.042;6.406;2023-06-10T11:41:34;5.10;;;2.58;;
54263;SDS011;40178;53.042;6.406;2023-06-10T11:44:10;7.93;;;2.72;;
54263;SDS011;40178;53.042;6.406;2023-06-10T11:46:37;6.30;;;2.38;;
54263;SDS011;40178;53.042;6.406;2023-06-10T11:49:03;6.18;;;2.70;;
54263;SDS011;40178;53.042;6.406;2023-06-10T11:51:34;5.18;;;2.38;;
54263;SDS011;40178;53.042;6.406;2023-06-10T11:54:02;6.00;;;2.00;;
54263;SDS011;40178;53.042;6.406;2023-06-10T11:56:29;7.05;;;2.30;;
54263;SDS011;40178;53.042;6.406;2023-06-10T11:58:58;6.38;;;2.25;;
54263;SDS011;40178;53.042;6.406;2023-06-10T12:01:32;4.20;;;1.75;;
54263;SDS011;40178;53.042;6.406;2023-06-10T12:04:02;7.85;;;2.28;;
54263;SDS011;40178;53.042;6.406;2023-06-10T12:06:43;6.35;;;2.45;;
54263;SDS011;40178;53.042;6.406;2023-06-10T12:09:17;5.95;;;2.38;;
54263;SDS011;40178;53.042;6.406;2023-06-10T12:11:45;5.88;;;2.40;;
54263;SDS011;40178;53.042;6.406;2023-06-10T12:14:15;5.05;;;2.28;;
54263;SDS011;40178;53.042;6.406;2023-06-10T12:16:40;6.30;;;2.22;;
54263;SDS011;40178;53.042;6.406;2023-06-10T12:19:13;5.00;;;2.42;;
54263;SDS011;40178;53.042;6.406;2023-06-10T12:21:39;6.15;;;2.05;;
54263;SDS011;40178;53.042;6.406;2023-06-10T12:26:41;6.55;;;2.10;;
54263;SDS011;40178;53.042;6.406;2023-06-10T12:29:22;6.40;;;2.65;;
54263;SDS011;40178;53.042;6.406;2023-06-10T12:32:01;8.32;;;2.60;;
54263;SDS011;40178;53.042;6.406;2023-06-10T12:34:38;5.50;;;2.00;;
54263;SDS011;40178;53.042;6.406;2023-06-10T12:37:13;4.60;;;2.13;;
54263;SDS011;40178;53.042;6.406;2023-06-10T12:39:39;7.50;;;2.30;;
54263;SDS011;40178;53.042;6.406;2023-06-10T12:42:06;4.70;;;2.30;;
54263;SDS011;40178;53.042;6.406;2023-06-10T12:44:35;5.72;;;2.22;;
54263;SDS011;40178;53.042;6.406;2023-06-10T12:47:07;5.00;;;2.10;;
54263;SDS011;40178;53.042;6.406;2023-06-10T12:49:35;5.70;;;2.45;;
54263;SDS011;40178;53.042;6.406;2023-06-10T12:52:01;7.60;;;2.38;;
54263;SDS011;40178;53.042;6.406;2023-06-10T12:54:27;5.80;;;2.25;;
54263;SDS011;40178;53.042;6.406;2023-06-10T12:56:53;4.18;;;2.13;;
54263;SDS011;40178;53.042;6.406;2023-06-10T12:59:18;7.30;;;2.30;;
54263;SDS011;40178;53.042;6.406;2023-06-10T13:01:49;4.18;;;2.13;;
54263;SDS011;40178;53.042;6.406;2023-06-10T13:04:16;4.20;;;2.00;;
54263;SDS011;40178;53.042;6.406;2023-06-10T13:06:42;4.68;;;2.13;;
54263;SDS011;40178;53.042;6.406;2023-06-10T13:09:07;4.65;;;2.20;;
54263;SDS011;40178;53.042;6.406;2023-06-10T13:11:33;5.32;;;2.30;;
54263;SDS011;40178;53.042;6.406;2023-06-10T13:14:00;5.13;;;2.90;;
54263;SDS011;40178;53.042;6.406;2023-06-10T13:16:26;7.93;;;3.33;;
54263;SDS011;40178;53.042;6.406;2023-06-10T13:18:53;5.68;;;2.38;;
54263;SDS011;40178;53.042;6.406;2023-06-10T13:21:19;8.13;;;2.70;;
54263;SDS011;40178;53.042;6.406;2023-06-10T13:23:45;4.13;;;1.98;;
54263;SDS011;40178;53.042;6.406;2023-06-10T13:26:13;6.03;;;2.53;;
54263;SDS011;40178;53.042;6.406;2023-06-10T13:28:39;4.90;;;2.50;;
54263;SDS011;40178;53.042;6.406;2023-06-10T13:31:05;4.88;;;2.47;;
54263;SDS011;40178;53.042;6.406;2023-06-10T13:33:31;5.97;;;2.72;;
54263;SDS011;40178;53.042;6.406;2023-06-10T13:35:56;4.55;;;2.20;;
54263;SDS011;40178;53.042;6.406;2023-06-10T13:38:22;5.75;;;2.67;;
54263;SDS011;40178;53.042;6.406;2023-06-10T13:40:47;6.15;;;2.97;;
54263;SDS011;40178;53.042;6.406;2023-06-10T13:43:13;4.68;;;2.92;;
54263;SDS011;40178;53.042;6.406;2023-06-10T13:45:39;5.90;;;3.42;;
54263;SDS011;40178;53.042;6.406;2023-06-10T13:48:05;5.45;;;2.47;;
54263;SDS011;40178;53.042;6.406;2023-06-10T13:50:31;3.95;;;2.40;;
54263;SDS011;40178;53.042;6.406;2023-06-10T13:52:57;5.32;;;2.50;;
54263;SDS011;40178;53.042;6.406;2023-06-10T13:55:22;5.82;;;2.80;;
54263;SDS011;40178;53.042;6.406;2023-06-10T13:57:49;6.82;;;2.97;;
54263;SDS011;40178;53.042;6.406;2023-06-10T14:00:15;5.65;;;2.95;;
54263;SDS011;40178;53.042;6.406;2023-06-10T14:02:41;5.60;;;2.60;;
54263;SDS011;40178;53.042;6.406;2023-06-10T14:05:07;4.95;;;2.45;;
54263;SDS011;40178;53.042;6.406;2023-06-10T14:07:33;7.03;;;2.83;;
54263;SDS011;40178;53.042;6.406;2023-06-10T14:09:59;5.95;;;2.92;;
54263;SDS011;40178;53.042;6.406;2023-06-10T14:12:25;6.40;;;2.72;;
54263;SDS011;40178;53.042;6.406;2023-06-10T14:14:51;6.85;;;2.90;;
54263;SDS011;40178;53.042;6.406;2023-06-10T14:17:16;6.28;;;2.85;;
54263;SDS011;40178;53.042;6.406;2023-06-10T14:19:42;5.97;;;2.45;;
54263;SDS011;40178;53.042;6.406;2023-06-10T14:22:07;4.70;;;2.75;;
54263;SDS011;40178;53.042;6.406;2023-06-10T14:24:33;4.80;;;2.53;;
54263;SDS011;40178;53.042;6.406;2023-06-10T14:27:01;5.55;;;3.10;;
54263;SDS011;40178;53.042;6.406;2023-06-10T14:29:26;5.07;;;2.95;;
54263;SDS011;40178;53.042;6.406;2023-06-10T14:31:54;4.93;;;2.90;;
54263;SDS011;40178;53.042;6.406;2023-06-10T14:34:20;5.85;;;2.72;;
54263;SDS011;40178;53.042;6.406;2023-06-10T14:36:45;5.18;;;2.75;;
54263;SDS011;40178;53.042;6.406;2023-06-10T14:39:11;4.57;;;2.60;;
54263;SDS011;40178;53.042;6.406;2023-06-10T14:41:36;4.65;;;2.83;;
54263;SDS011;40178;53.042;6.406;2023-06-10T14:44:02;4.85;;;2.70;;
54263;SDS011;40178;53.042;6.406;2023-06-10T14:46:28;4.78;;;2.70;;
54263;SDS011;40178;53.042;6.406;2023-06-10T14:48:53;7.78;;;3.00;;
54263;SDS011;40178;53.042;6.406;2023-06-10T14:51:19;5.78;;;2.67;;
54263;SDS011;40178;53.042;6.406;2023-06-10T14:53:46;4.93;;;2.92;;
54263;SDS011;40178;53.042;6.406;2023-06-10T14:56:11;8.57;;;3.55;;
54263;SDS011;40178;53.042;6.406;2023-06-10T14:58:37;4.78;;;2.67;;
54263;SDS011;40178;53.042;6.406;2023-06-10T15:01:03;4.53;;;3.20;;
54263;SDS011;40178;53.042;6.406;2023-06-10T15:03:29;6.32;;;2.80;;
54263;SDS011;40178;53.042;6.406;2023-06-10T15:05:54;12.68;;;4.13;;
54263;SDS011;40178;53.042;6.406;2023-06-10T15:08:20;6.70;;;2.60;;
54263;SDS011;40178;53.042;6.406;2023-06-10T15:10:46;4.85;;;2.80;;
54263;SDS011;40178;53.042;6.406;2023-06-10T15:13:13;5.38;;;2.85;;
54263;SDS011;40178;53.042;6.406;2023-06-10T15:15:39;4.10;;;2.53;;